createdAt,value
2017-08-29T00:01:32.913Z,7.03
2017-08-29T00:04:01.220Z,5.20
2017-08-29T00:06:29.519Z,4.53
2017-08-29T00:08:57.823Z,6.23
2017-08-29T00:11:26.121Z,5.70
2017-08-29T00:13:54.481Z,4.80
2017-08-29T00:16:22.787Z,6.97
2017-08-29T00:18:51.065Z,5.30
2017-08-29T00:21:19.403Z,5.37
2017-08-29T00:23:47.709Z,5.37
2017-08-29T00:26:16.050Z,6.30
2017-08-29T00:28:44.362Z,6.50
2017-08-29T00:31:12.690Z,6.23
2017-08-29T00:33:40.977Z,7.17
2017-08-29T00:36:09.306Z,6.20
2017-08-29T00:38:37.919Z,6.80
2017-08-29T00:41:06.555Z,5.70
2017-08-29T00:43:34.843Z,5.77
2017-08-29T00:46:03.154Z,6.87
2017-08-29T00:48:31.466Z,5.23
2017-08-29T00:50:59.756Z,6.30
2017-08-29T00:53:28.083Z,5.90
2017-08-29T00:55:56.385Z,5.13
2017-08-29T00:58:24.699Z,5.70
2017-08-29T01:00:53.007Z,5.73
2017-08-29T01:03:21.326Z,5.47
2017-08-29T01:05:49.624Z,6.17
2017-08-29T01:08:18.093Z,4.73
2017-08-29T01:10:46.385Z,6.73
2017-08-29T01:13:14.695Z,6.57
2017-08-29T01:15:42.995Z,5.70
2017-08-29T01:18:11.306Z,5.87
2017-08-29T01:20:39.628Z,6.50
2017-08-29T01:23:07.919Z,5.10
2017-08-29T01:25:36.247Z,4.63
2017-08-29T01:28:04.551Z,5.10
2017-08-29T01:30:32.894Z,4.67
2017-08-29T01:33:01.201Z,5.57
2017-08-29T01:35:29.831Z,4.80
2017-08-29T01:37:58.183Z,5.80
2017-08-29T01:40:26.481Z,6.10
2017-08-29T01:42:54.819Z,6.63
2017-08-29T01:45:23.132Z,5.23
2017-08-29T01:47:51.489Z,6.03
2017-08-29T01:50:19.784Z,7.27
2017-08-29T01:52:48.092Z,5.67
2017-08-29T01:55:16.398Z,5.73
2017-08-29T01:57:44.874Z,7.20
2017-08-29T02:00:13.182Z,7.37
2017-08-29T02:02:42.275Z,5.30
2017-08-29T02:05:10.613Z,6.30
2017-08-29T02:07:38.909Z,7.30
2017-08-29T02:10:07.233Z,6.80
2017-08-29T02:12:35.587Z,6.50
2017-08-29T02:15:03.925Z,5.90
2017-08-29T02:17:32.231Z,8.07
2017-08-29T02:20:00.564Z,7.00
2017-08-29T02:22:28.869Z,6.57
2017-08-29T02:24:57.171Z,7.87
2017-08-29T02:27:25.694Z,7.33
2017-08-29T02:29:54.267Z,7.23
2017-08-29T02:32:22.572Z,6.07
2017-08-29T02:34:50.854Z,6.90
2017-08-29T02:37:19.192Z,6.97
2017-08-29T02:39:47.481Z,7.10
2017-08-29T02:42:15.787Z,7.50
2017-08-29T02:44:44.086Z,6.70
2017-08-29T02:47:12.407Z,6.17
2017-08-29T02:49:40.670Z,8.57
2017-08-29T02:52:08.995Z,8.00
2017-08-29T02:54:37.303Z,8.10
2017-08-29T02:57:05.620Z,9.17
2017-08-29T02:59:33.923Z,7.33
2017-08-29T03:02:02.350Z,7.67
2017-08-29T03:04:30.639Z,7.37
2017-08-29T03:06:58.963Z,8.47
2017-08-29T03:09:27.279Z,8.77
2017-08-29T03:11:55.604Z,6.73
2017-08-29T03:14:23.950Z,6.60
2017-08-29T03:16:52.278Z,8.80
2017-08-29T03:19:20.620Z,8.67
2017-08-29T03:21:48.898Z,8.33
2017-08-29T03:24:17.341Z,8.13
2017-08-29T03:26:45.619Z,8.33
2017-08-29T03:29:13.940Z,7.97
2017-08-29T03:31:42.273Z,7.00
2017-08-29T03:34:10.579Z,8.73
2017-08-29T03:36:38.901Z,8.87
2017-08-29T03:39:07.238Z,9.63
2017-08-29T03:41:35.911Z,10.10
2017-08-29T03:44:04.212Z,9.63
2017-08-29T03:46:32.554Z,8.87
2017-08-29T03:49:00.859Z,10.00
2017-08-29T03:51:29.504Z,9.60
2017-08-29T03:53:58.518Z,7.90
2017-08-29T03:56:27.098Z,9.40
2017-08-29T03:58:55.426Z,9.13
2017-08-29T04:01:23.717Z,8.57
2017-08-29T04:03:52.079Z,13.20
2017-08-29T04:06:20.414Z,9.43
2017-08-29T04:08:48.760Z,8.73
2017-08-29T04:11:17.050Z,8.73
2017-08-29T04:13:45.492Z,10.77
2017-08-29T04:16:13.820Z,10.80
2017-08-29T04:18:42.150Z,10.33
2017-08-29T04:21:10.480Z,10.70
2017-08-29T04:23:38.779Z,9.90
2017-08-29T04:26:07.100Z,10.57
2017-08-29T04:28:35.435Z,10.53
2017-08-29T04:31:03.752Z,8.83
2017-08-29T04:33:32.045Z,8.73
2017-08-29T04:36:00.372Z,10.33
2017-08-29T04:38:28.662Z,10.07
2017-08-29T04:40:56.999Z,11.43
2017-08-29T04:43:25.307Z,11.80
2017-08-29T04:45:53.734Z,12.57
2017-08-29T04:48:22.037Z,10.77
2017-08-29T04:50:50.338Z,12.53
2017-08-29T04:53:18.650Z,9.97
2017-08-29T04:55:46.964Z,10.97
2017-08-29T04:58:15.311Z,10.50
2017-08-29T05:00:43.615Z,12.67
2017-08-29T05:03:11.954Z,10.83
2017-08-29T05:05:40.269Z,12.43
2017-08-29T05:08:08.600Z,11.80
2017-08-29T05:10:36.922Z,12.93
2017-08-29T05:13:05.232Z,10.97
2017-08-29T05:15:33.608Z,10.10
2017-08-29T05:18:01.907Z,10.83
2017-08-29T05:20:30.231Z,11.30
2017-08-29T05:22:58.543Z,13.70
2017-08-29T05:25:26.880Z,11.90
2017-08-29T05:27:56.102Z,10.00
2017-08-29T05:30:24.454Z,10.50
2017-08-29T05:32:52.764Z,11.70
2017-08-29T05:35:21.094Z,9.60
2017-08-29T05:37:49.391Z,9.43
2017-08-29T05:40:17.717Z,10.97
2017-08-29T05:42:46.039Z,10.60
2017-08-29T05:45:14.432Z,10.33
2017-08-29T05:47:42.797Z,10.37
2017-08-29T05:50:11.202Z,8.40
2017-08-29T05:52:39.548Z,11.37
2017-08-29T05:55:07.897Z,12.30
2017-08-29T05:57:37.067Z,13.07
2017-08-29T06:00:05.507Z,8.30
2017-08-29T06:02:33.894Z,11.43
2017-08-29T06:05:03.110Z,10.23
2017-08-29T06:07:31.465Z,9.20
2017-08-29T06:09:59.803Z,8.90
2017-08-29T06:12:28.712Z,8.73
2017-08-29T06:14:57.072Z,12.53
2017-08-29T06:17:25.790Z,9.03
2017-08-29T06:19:54.258Z,10.10
2017-08-29T06:22:22.562Z,7.93
2017-08-29T06:24:50.896Z,7.77
2017-08-29T06:27:19.252Z,8.53
2017-08-29T06:29:47.706Z,7.33
2017-08-29T06:32:16.254Z,7.10
2017-08-29T06:34:44.719Z,7.60
2017-08-29T06:37:13.015Z,8.40
2017-08-29T06:39:41.347Z,7.70
2017-08-29T06:42:09.741Z,7.20
2017-08-29T06:44:38.075Z,6.97
2017-08-29T06:47:06.587Z,7.33
2017-08-29T06:49:34.932Z,11.43
2017-08-29T06:52:03.344Z,8.70
2017-08-29T06:54:31.691Z,6.90
2017-08-29T06:57:00.532Z,8.10
2017-08-29T06:59:28.897Z,7.90
2017-08-29T07:01:58.133Z,7.80
2017-08-29T07:04:26.478Z,7.97
2017-08-29T07:06:54.783Z,8.90
2017-08-29T07:09:23.124Z,8.70
2017-08-29T07:11:52.308Z,8.20
2017-08-29T07:14:20.682Z,7.43
2017-08-29T07:16:49.002Z,7.10
2017-08-29T07:19:17.423Z,8.70
2017-08-29T07:21:45.772Z,8.10
2017-08-29T07:24:14.190Z,7.20
2017-08-29T07:26:42.521Z,8.50
2017-08-29T07:29:11.179Z,9.83
2017-08-29T07:31:39.500Z,9.20
2017-08-29T07:34:07.866Z,10.37
2017-08-29T07:36:36.478Z,8.20
2017-08-29T07:39:04.897Z,7.97
2017-08-29T07:41:33.297Z,9.07
2017-08-29T07:44:01.663Z,9.50
2017-08-29T07:46:30.770Z,9.97
2017-08-29T07:48:59.803Z,7.07
2017-08-29T07:51:28.194Z,7.93
2017-08-29T07:53:56.553Z,8.30
2017-08-29T07:56:24.923Z,8.80
2017-08-29T07:58:53.221Z,6.83
2017-08-29T08:01:21.671Z,12.50
2017-08-29T08:03:50.051Z,7.10
2017-08-29T08:06:18.363Z,9.27
2017-08-29T08:08:46.706Z,8.27
2017-08-29T08:11:15.052Z,7.67
2017-08-29T08:13:43.390Z,9.07
2017-08-29T08:16:11.709Z,7.17
2017-08-29T08:18:40.159Z,7.50
2017-08-29T08:21:08.495Z,10.67
2017-08-29T08:23:36.795Z,8.87
2017-08-29T08:26:05.124Z,8.20
2017-08-29T08:28:33.423Z,6.53
2017-08-29T08:31:01.730Z,7.30
2017-08-29T08:33:30.071Z,8.13
2017-08-29T08:35:58.408Z,12.03
2017-08-29T08:38:26.755Z,7.40
2017-08-29T08:40:55.384Z,7.70
2017-08-29T08:43:23.683Z,8.67
2017-08-29T08:45:52.200Z,8.43
2017-08-29T08:48:20.526Z,8.83
2017-08-29T08:50:48.871Z,7.70
2017-08-29T08:53:17.240Z,7.87
2017-08-29T08:55:45.609Z,8.70
2017-08-29T08:58:13.947Z,6.37
2017-08-29T09:00:42.280Z,6.30
2017-08-29T09:03:11.436Z,9.13
2017-08-29T09:05:39.759Z,9.80
2017-08-29T09:08:08.150Z,8.13
2017-08-29T09:10:36.465Z,8.10
2017-08-29T09:13:05.116Z,6.87
2017-08-29T09:15:33.555Z,10.97
2017-08-29T09:18:01.904Z,8.70
2017-08-29T09:20:30.231Z,8.47
2017-08-29T09:22:59.286Z,7.37
2017-08-29T09:25:27.650Z,8.37
2017-08-29T09:27:55.927Z,8.50
2017-08-29T09:30:24.483Z,9.87
2017-08-29T09:32:53.707Z,7.50
2017-08-29T09:35:22.254Z,9.17
2017-08-29T09:37:50.568Z,10.80
2017-08-29T09:40:19.213Z,10.00
2017-08-29T09:42:47.537Z,9.97
2017-08-29T09:45:15.838Z,9.23
2017-08-29T09:47:44.266Z,11.43
2017-08-29T09:50:12.648Z,10.20
2017-08-29T09:52:41.007Z,8.80
2017-08-29T09:55:09.320Z,8.70
2017-08-29T09:57:38.346Z,9.80
2017-08-29T10:00:07.291Z,11.47
2017-08-29T10:02:35.653Z,10.87
2017-08-29T10:05:04.021Z,10.83
2017-08-29T10:07:32.355Z,9.90
2017-08-29T10:10:00.684Z,11.60
2017-08-29T10:12:29.023Z,10.53
2017-08-29T10:14:57.326Z,8.23
2017-08-29T10:17:25.638Z,10.63
2017-08-29T10:19:54.142Z,9.60
2017-08-29T10:22:22.667Z,11.30
2017-08-29T10:24:50.998Z,9.57
2017-08-29T10:27:19.276Z,9.73
2017-08-29T10:29:47.631Z,7.57
2017-08-29T10:32:15.946Z,9.00
2017-08-29T10:34:44.285Z,10.57
2017-08-29T10:37:12.596Z,12.50
2017-08-29T10:39:40.980Z,10.17
2017-08-29T10:42:10.071Z,9.90
2017-08-29T10:44:38.443Z,9.47
2017-08-29T10:47:06.867Z,10.60
2017-08-29T10:49:36.081Z,13.03
2017-08-29T10:52:04.385Z,11.13
2017-08-29T10:54:32.740Z,14.70
2017-08-29T10:57:01.077Z,15.23
2017-08-29T10:59:29.421Z,15.00
2017-08-29T11:01:57.740Z,14.80
2017-08-29T11:04:26.184Z,13.90
2017-08-29T11:06:54.480Z,14.23
2017-08-29T11:09:22.766Z,13.80
2017-08-29T11:11:51.116Z,14.27
2017-08-29T11:14:19.419Z,17.67
2017-08-29T11:16:48.678Z,15.07
2017-08-29T11:19:17.016Z,16.30
2017-08-29T11:21:45.373Z,15.73
2017-08-29T11:24:13.730Z,17.03
2017-08-29T11:26:42.112Z,18.37
2017-08-29T11:29:10.478Z,15.67
2017-08-29T11:31:39.249Z,14.37
2017-08-29T11:34:07.579Z,14.70
2017-08-29T11:36:35.903Z,13.77
2017-08-29T11:39:04.229Z,14.63
2017-08-29T11:41:32.539Z,13.97
2017-08-29T11:44:00.883Z,16.37
2017-08-29T11:46:29.189Z,15.13
2017-08-29T11:48:57.548Z,15.27
2017-08-29T11:51:25.903Z,15.43
2017-08-29T11:53:54.259Z,14.13
2017-08-29T11:56:22.571Z,15.17
2017-08-29T11:58:50.930Z,14.00
2017-08-29T12:01:20.006Z,15.80
2017-08-29T12:03:48.485Z,19.20
2017-08-29T12:06:16.794Z,15.47
2017-08-29T12:08:45.103Z,16.30
2017-08-29T12:11:13.469Z,17.30
2017-08-29T12:13:42.058Z,19.67
2017-08-29T12:16:10.457Z,17.80
2017-08-29T12:18:38.801Z,17.70
2017-08-29T12:21:07.156Z,18.10
2017-08-29T12:23:35.492Z,19.93
2017-08-29T12:26:03.786Z,22.87
2017-08-29T12:28:32.119Z,21.93
2017-08-29T12:31:00.466Z,22.20
2017-08-29T12:33:28.800Z,24.77
2017-08-29T12:35:58.475Z,24.23
2017-08-29T12:38:28.013Z,19.77
2017-08-29T12:40:57.621Z,19.57
2017-08-29T12:43:27.126Z,20.77
2017-08-29T12:45:56.695Z,21.53
2017-08-29T12:48:26.245Z,14.87
2017-08-29T12:50:55.802Z,15.47
2017-08-29T12:53:25.355Z,14.27
2017-08-29T12:55:54.909Z,13.43
2017-08-29T12:58:24.451Z,14.97
2017-08-29T13:00:54.046Z,14.70
2017-08-29T13:03:23.581Z,14.73
2017-08-29T13:05:53.132Z,14.40
2017-08-29T13:08:22.658Z,15.73
2017-08-29T13:10:52.207Z,17.10
2017-08-29T13:13:21.796Z,18.60
2017-08-29T13:15:51.322Z,17.97
2017-08-29T13:18:20.885Z,17.10
2017-08-29T13:20:51.256Z,15.83
2017-08-29T13:23:20.855Z,14.83
2017-08-29T13:25:50.396Z,16.00
2017-08-29T13:28:19.962Z,14.00
2017-08-29T13:30:49.534Z,13.07
2017-08-29T13:33:19.077Z,15.10
2017-08-29T13:35:48.687Z,15.47
2017-08-29T13:38:18.223Z,13.43
2017-08-29T13:40:47.832Z,14.60
2017-08-29T13:43:17.375Z,13.43
2017-08-29T13:45:47.038Z,13.63
2017-08-29T13:48:16.587Z,13.03
2017-08-29T13:50:46.163Z,13.60
2017-08-29T13:53:15.680Z,12.70
2017-08-29T13:55:45.295Z,14.27
2017-08-29T13:58:14.870Z,13.80
2017-08-29T14:00:44.431Z,13.20
2017-08-29T14:03:14.010Z,13.73
2017-08-29T14:05:43.554Z,13.80
2017-08-29T14:08:11.726Z,11.47
2017-08-29T14:10:40.065Z,15.77
2017-08-29T14:13:08.403Z,13.37
2017-08-29T14:15:36.775Z,14.47
2017-08-29T14:18:05.109Z,14.77
2017-08-29T14:20:33.422Z,13.63
2017-08-29T14:23:01.796Z,11.87
2017-08-29T14:25:30.111Z,13.67
2017-08-29T14:27:58.466Z,13.77
2017-08-29T14:30:26.772Z,12.43
2017-08-29T14:32:55.073Z,12.70
2017-08-29T14:35:23.459Z,16.07
2017-08-29T14:37:51.811Z,12.37
2017-08-29T14:40:20.147Z,12.87
2017-08-29T14:42:48.578Z,13.17
2017-08-29T14:45:16.972Z,11.67
2017-08-29T14:47:57.316Z,12.83
2017-08-29T14:50:25.735Z,11.13
2017-08-29T14:52:54.050Z,12.90
2017-08-29T14:55:22.627Z,11.10
2017-08-29T14:57:51.001Z,11.20
2017-08-29T15:00:19.322Z,11.60
2017-08-29T15:02:47.638Z,12.03
2017-08-29T15:05:15.974Z,11.50
2017-08-29T15:07:44.319Z,10.77
2017-08-29T15:10:12.634Z,11.60
2017-08-29T15:12:40.977Z,11.63
2017-08-29T15:15:09.317Z,11.63
2017-08-29T15:17:37.689Z,11.83
2017-08-29T15:20:06.004Z,11.13
2017-08-29T15:22:34.374Z,12.03
2017-08-29T15:25:02.746Z,11.70
2017-08-29T15:27:31.128Z,12.37
2017-08-29T15:29:59.455Z,11.50
2017-08-29T15:32:27.772Z,10.23
2017-08-29T15:34:56.122Z,9.37
2017-08-29T15:37:24.467Z,11.13
2017-08-29T15:39:52.788Z,12.47
2017-08-29T15:42:21.136Z,12.13
2017-08-29T15:44:49.507Z,12.60
2017-08-29T15:47:17.824Z,12.77
2017-08-29T15:49:46.149Z,12.50
2017-08-29T15:52:14.512Z,11.43
2017-08-29T15:54:42.850Z,10.73
2017-08-29T15:57:11.198Z,10.73
2017-08-29T15:59:39.619Z,11.63
2017-08-29T16:02:08.003Z,11.50
2017-08-29T16:04:36.333Z,11.30
2017-08-29T16:07:04.663Z,13.70
2017-08-29T16:09:33.013Z,15.77
2017-08-29T16:12:01.319Z,13.83
2017-08-29T16:14:29.691Z,12.37
2017-08-29T16:16:58.034Z,13.87
2017-08-29T16:19:26.350Z,10.97
2017-08-29T16:21:54.733Z,12.40
2017-08-29T16:24:23.062Z,12.97
2017-08-29T16:26:51.419Z,12.83
2017-08-29T16:29:19.788Z,10.60
2017-08-29T16:31:48.123Z,12.70
2017-08-29T16:34:16.488Z,11.77
2017-08-29T16:36:44.810Z,17.30
2017-08-29T16:39:13.146Z,18.70
2017-08-29T16:41:41.510Z,15.90
2017-08-29T16:44:09.815Z,21.67
2017-08-29T16:46:38.153Z,15.13
2017-08-29T16:49:06.515Z,11.60
2017-08-29T16:51:34.881Z,15.47
2017-08-29T16:54:03.295Z,11.63
2017-08-29T16:56:31.652Z,12.80
2017-08-29T16:59:00.007Z,16.43
2017-08-29T17:01:28.335Z,13.53
2017-08-29T17:03:56.696Z,15.10
2017-08-29T17:06:25.038Z,13.60
2017-08-29T17:08:53.341Z,13.73
2017-08-29T17:11:21.697Z,14.03
2017-08-29T17:13:50.006Z,12.83
2017-08-29T17:16:18.318Z,12.93
2017-08-29T17:18:46.667Z,13.97
2017-08-29T17:21:15.046Z,12.70
2017-08-29T17:23:43.346Z,13.07
2017-08-29T17:26:12.443Z,12.77
2017-08-29T17:28:40.812Z,15.10
2017-08-29T17:31:09.178Z,12.73
2017-08-29T17:33:37.488Z,12.60
2017-08-29T17:36:05.867Z,16.97
2017-08-29T17:38:34.178Z,16.10
2017-08-29T17:41:02.504Z,13.70
2017-08-29T17:43:30.887Z,13.97
2017-08-29T17:45:59.208Z,13.23
2017-08-29T17:48:28.354Z,13.80
2017-08-29T17:50:56.745Z,13.60
2017-08-29T17:53:25.112Z,12.13
2017-08-29T17:55:53.810Z,12.90
2017-08-29T17:58:22.719Z,12.50
2017-08-29T18:00:51.026Z,14.40
2017-08-29T18:03:19.403Z,12.50
2017-08-29T18:05:47.719Z,12.77
2017-08-29T18:08:16.086Z,12.87
2017-08-29T18:10:44.414Z,13.50
2017-08-29T18:13:12.790Z,11.63
2017-08-29T18:15:41.142Z,13.23
2017-08-29T18:18:09.468Z,12.70
2017-08-29T18:20:37.856Z,13.97
2017-08-29T18:23:06.191Z,12.50
2017-08-29T18:25:34.605Z,13.20
2017-08-29T18:28:03.014Z,14.97
2017-08-29T18:30:32.194Z,15.80
2017-08-29T18:33:00.574Z,15.40
2017-08-29T18:35:28.936Z,14.83
2017-08-29T18:37:57.311Z,14.93
2017-08-29T18:40:25.998Z,14.57
2017-08-29T18:42:54.314Z,15.57
2017-08-29T18:45:22.677Z,19.17
2017-08-29T18:47:51.167Z,16.37
2017-08-29T18:50:19.471Z,13.83
2017-08-29T18:52:47.814Z,15.57
2017-08-29T18:55:16.162Z,14.87
2017-08-29T18:57:44.462Z,15.70
2017-08-29T19:00:12.816Z,14.70
2017-08-29T19:02:41.123Z,14.83
2017-08-29T19:05:09.452Z,15.57
2017-08-29T19:07:37.755Z,16.33
2017-08-29T19:10:06.104Z,15.17
2017-08-29T19:12:34.422Z,15.43
2017-08-29T19:15:02.920Z,15.87
2017-08-29T19:17:31.218Z,16.20
2017-08-29T19:19:59.578Z,17.20
2017-08-29T19:22:27.890Z,16.53
2017-08-29T19:24:56.208Z,16.87
2017-08-29T19:27:25.294Z,13.60
2017-08-29T19:29:53.926Z,14.57
2017-08-29T19:32:22.255Z,16.60
2017-08-29T19:34:50.562Z,15.07
2017-08-29T19:37:18.908Z,15.37
2017-08-29T19:39:47.228Z,16.50
2017-08-29T19:42:15.579Z,15.63
2017-08-29T19:44:43.931Z,15.43
2017-08-29T19:47:12.278Z,14.70
2017-08-29T19:49:40.611Z,14.43
2017-08-29T19:52:09.296Z,16.47
2017-08-29T19:54:37.619Z,15.93
2017-08-29T19:57:05.977Z,15.50
2017-08-29T19:59:34.298Z,15.17
2017-08-29T20:02:02.618Z,15.90
2017-08-29T20:04:30.975Z,15.43
2017-08-29T20:06:59.323Z,16.00
2017-08-29T20:09:27.665Z,16.03
2017-08-29T20:11:55.982Z,15.23
2017-08-29T20:14:24.319Z,16.80
2017-08-29T20:16:52.639Z,17.03
2017-08-29T20:19:21.466Z,14.80
2017-08-29T20:21:49.791Z,16.17
2017-08-29T20:24:18.140Z,14.63
2017-08-29T20:26:46.483Z,15.50
2017-08-29T20:29:14.788Z,14.83
2017-08-29T20:31:43.120Z,14.90
2017-08-29T20:34:11.439Z,15.53
2017-08-29T20:36:39.823Z,15.33
2017-08-29T20:39:08.136Z,15.00
2017-08-29T20:41:36.543Z,16.20
2017-08-29T20:44:04.871Z,14.30
2017-08-29T20:46:33.229Z,15.57
2017-08-29T20:49:01.560Z,13.30
2017-08-29T20:51:30.027Z,11.43
2017-08-29T20:53:58.337Z,12.80
2017-08-29T20:56:26.684Z,13.57
2017-08-29T20:58:55.063Z,13.43
2017-08-29T21:01:23.367Z,14.30
2017-08-29T21:03:51.714Z,13.20
2017-08-29T21:06:20.027Z,14.07
2017-08-29T21:08:48.370Z,12.90
2017-08-29T21:11:16.696Z,12.10
2017-08-29T21:13:45.373Z,15.40
2017-08-29T21:16:13.670Z,12.80
2017-08-29T21:18:41.982Z,12.63
2017-08-29T21:21:10.338Z,13.47
2017-08-29T21:23:38.703Z,14.00
2017-08-29T21:26:07.066Z,12.70
2017-08-29T21:28:35.483Z,12.67
2017-08-29T21:31:03.982Z,12.87
2017-08-29T21:33:32.313Z,13.33
2017-08-29T21:36:00.629Z,12.50
2017-08-29T21:38:28.930Z,13.40
2017-08-29T21:40:58.053Z,12.87
2017-08-29T21:43:26.349Z,12.50
2017-08-29T21:45:54.778Z,14.13
2017-08-29T21:48:23.108Z,11.73
2017-08-29T21:50:51.423Z,14.63
2017-08-29T21:53:19.746Z,12.90
2017-08-29T21:55:48.049Z,13.77
2017-08-29T21:58:16.430Z,13.17
2017-08-29T22:00:44.734Z,14.30
2017-08-29T22:03:13.077Z,13.60
2017-08-29T22:05:41.395Z,13.23
2017-08-29T22:08:10.209Z,13.50
2017-08-29T22:10:38.507Z,13.63
2017-08-29T22:13:06.847Z,14.20
2017-08-29T22:15:35.184Z,12.43
2017-08-29T22:18:03.520Z,12.37
2017-08-29T22:20:31.836Z,14.00
2017-08-29T22:23:00.184Z,14.23
2017-08-29T22:25:28.500Z,15.00
2017-08-29T22:27:56.927Z,12.63
2017-08-29T22:30:25.242Z,14.93
2017-08-29T22:32:53.550Z,13.43
2017-08-29T22:35:21.885Z,14.07
2017-08-29T22:37:50.202Z,13.43
2017-08-29T22:40:18.525Z,13.07
2017-08-29T22:42:46.831Z,12.73
2017-08-29T22:45:15.158Z,12.43
2017-08-29T22:47:43.488Z,13.10
2017-08-29T22:50:11.818Z,12.13
2017-08-29T22:52:40.135Z,13.20
2017-08-29T22:55:08.530Z,12.13
2017-08-29T22:57:36.863Z,11.77
2017-08-29T23:00:05.428Z,12.87
2017-08-29T23:02:33.760Z,13.27
2017-08-29T23:05:02.059Z,12.90
2017-08-29T23:07:30.402Z,14.27
2017-08-29T23:09:58.714Z,12.57
2017-08-29T23:12:27.056Z,13.43
2017-08-29T23:14:55.384Z,12.10
2017-08-29T23:17:24.494Z,12.23
2017-08-29T23:19:52.803Z,12.60
2017-08-29T23:22:21.139Z,14.77
2017-08-29T23:24:49.454Z,13.37
2017-08-29T23:27:17.788Z,12.00
2017-08-29T23:29:46.079Z,12.33
2017-08-29T23:32:14.513Z,11.97
2017-08-29T23:34:42.835Z,12.03
2017-08-29T23:37:11.139Z,12.73
2017-08-29T23:39:39.475Z,14.40
2017-08-29T23:42:07.764Z,12.83
2017-08-29T23:44:36.098Z,14.40
2017-08-29T23:47:04.400Z,13.60
2017-08-29T23:49:33.500Z,12.43
2017-08-29T23:52:01.807Z,13.63
2017-08-29T23:54:30.351Z,11.87
2017-08-29T23:56:58.669Z,12.87
2017-08-29T23:59:26.979Z,13.30
